Oceanis — SVBC9 — position and weather

sailwx.info

Track history (hours):
 
Tides and Currents Weather Stations Pressure Air Temp Water Temp Dewpoint Dewpoint Depression Visibility Wind Speed Wind Dir Waves Ship Positions

Oceanis

Last reported at 2016-Apr-08 14:17 UTC. Time now 2016-Apr-29 15:53 UTC.
Position N 07°41' W 015°60'.
Warning: this ship's position is 21 days out of date.

Length 330 m; draft 20.8 m.

Type: Tanker. MMSI: 241089000.

Date/timePositionNaut miles runAvg speedWind from/ knotsBaromVisibWave heightAir tempDewpointWater temp
2016-Apr-08 14:17N 07°41' W 015°60'  
2016-Apr-04 01:17N 27°53' W 013°44'1312.9
2016-Apr-04 00:17N 28°04' W 013°35'2212.7
2016-Apr-03 22:32N 28°22' W 013°21'60412.3
2016-Apr-01 21:33N 35°59' W 005°33'1010.1
2016-Apr-01 20:33N 36°01' W 005°21'1010.2
2016-Apr-01 19:33N 36°03' W 005°09'39011.7
2016-Mar-31 10:06N 37°17' E 002°49'711.9
2016-Mar-31 09:33N 37°18' E 002°57'1111.5
2016-Mar-31 08:33N 37°19' E 003°11'2311.7
2016-Mar-31 06:33N 37°21' E 003°41'22312.4
2016-Mar-30 12:33N 37°36' E 008°20'3612.0
2016-Mar-30 09:32N 37°38' E 009°06'1412.7
2016-Mar-30 08:24N 37°38' E 009°24'1112.6
2016-Mar-30 07:32N 37°38' E 009°38'1312.6
2016-Mar-30 06:32N 37°39' E 009°54'1312.7
2016-Mar-30 05:33N 37°39' E 010°10'1312.5
2016-Mar-30 04:32N 37°36' E 010°25'1412.7
2016-Mar-30 03:27N 37°34' E 010°42'2512.5
2016-Mar-30 01:28N 37°27' E 011°12'1112.2
2016-Mar-30 00:33N 37°22' E 011°25'1212.5
2016-Mar-29 23:33N 37°16' E 011°39'1312.5
2016-Mar-29 22:31N 37°10' E 011°53'1212.6
2016-Mar-29 21:32N 37°04' E 012°07'1212.5
2016-Mar-29 20:33N 36°60' E 012°21'1312.3
2016-Mar-29 19:30N 36°55' E 012°36'1512.2
2016-Mar-29 18:18N 36°50' E 012°53'912.1
2016-Mar-29 17:33N 36°46' E 013°04'1211.7
2016-Mar-29 16:33N 36°42' E 013°17'1212.3
2016-Mar-29 15:33N 36°38' E 013°32'1212.4
2016-Mar-29 14:33N 36°33' E 013°46'  
Track history (hours):
 
Tides and Currents Weather Stations Pressure Air Temp Water Temp Dewpoint Dewpoint Depression Visibility Wind Speed Wind Dir Waves Ship Positions

Oceanis

Last reported at 2016-Apr-08 14:17 UTC. Time now 2016-Apr-29 15:53 UTC.
Position N 07°41' W 015°60'.
Warning: this ship's position is 21 days out of date.

Length 330 m; draft 20.8 m.

Type: Tanker. MMSI: 241089000.

Date/timePositionNaut miles runAvg speedWind from/ knotsBaromVisibWave heightAir tempDewpointWater temp
2016-Apr-08 14:17N 07°41' W 015°60'  
2016-Apr-04 01:17N 27°53' W 013°44'1312.9
2016-Apr-04 00:17N 28°04' W 013°35'2212.7
2016-Apr-03 22:32N 28°22' W 013°21'60412.3
2016-Apr-01 21:33N 35°59' W 005°33'1010.1
2016-Apr-01 20:33N 36°01' W 005°21'1010.2
2016-Apr-01 19:33N 36°03' W 005°09'39011.7
2016-Mar-31 10:06N 37°17' E 002°49'711.9
2016-Mar-31 09:33N 37°18' E 002°57'1111.5
2016-Mar-31 08:33N 37°19' E 003°11'2311.7
2016-Mar-31 06:33N 37°21' E 003°41'22312.4
2016-Mar-30 12:33N 37°36' E 008°20'3612.0
2016-Mar-30 09:32N 37°38' E 009°06'1412.7
2016-Mar-30 08:24N 37°38' E 009°24'1112.6
2016-Mar-30 07:32N 37°38' E 009°38'1312.6
2016-Mar-30 06:32N 37°39' E 009°54'1312.7
2016-Mar-30 05:33N 37°39' E 010°10'1312.5
2016-Mar-30 04:32N 37°36' E 010°25'1412.7
2016-Mar-30 03:27N 37°34' E 010°42'2512.5
2016-Mar-30 01:28N 37°27' E 011°12'1112.2
2016-Mar-30 00:33N 37°22' E 011°25'1212.5
2016-Mar-29 23:33N 37°16' E 011°39'1312.5
2016-Mar-29 22:31N 37°10' E 011°53'1212.6
2016-Mar-29 21:32N 37°04' E 012°07'1212.5
2016-Mar-29 20:33N 36°60' E 012°21'1312.3
2016-Mar-29 19:30N 36°55' E 012°36'1512.2
2016-Mar-29 18:18N 36°50' E 012°53'912.1
2016-Mar-29 17:33N 36°46' E 013°04'1211.7
2016-Mar-29 16:33N 36°42' E 013°17'1212.3
2016-Mar-29 15:33N 36°38' E 013°32'1212.4
2016-Mar-29 14:33N 36°33' E 013°46'  

Dump ship's entire track history